Terminal Aerodrome Forecast
Issued by NWS

Home | Current Version | Previous Version | Graphics & Text | Print | Product List | Glossary On
Versions: 1 2 3 4 5 6 7 8 9 10 11 12 13 14 15 16 17 18 19 20 21 22 23 24 25 26 27 28 29
968
FTUS43 KLOT 201503 AAA
TAFDPA
TAF AMD
KDPA 201503Z 2015/2112 07006KT 1 1/2SM -DZ BR OVC003
     FM201800 11005KT 4SM BR OVC005
     FM210300 13006KT 3/4SM -DZ BR OVC004=

USA.gov is the U.S. government's official web portal to all federal, state and local government web resources and services.